createdAt,value
2022-10-22T00:01:02.326Z,6.22
2022-10-22T00:03:34.638Z,6.65
2022-10-22T00:06:07.400Z,5.78
2022-10-22T00:08:39.797Z,7.50
2022-10-22T00:11:14.280Z,6.50
2022-10-22T00:16:24.186Z,6.95
2022-10-22T00:18:56.532Z,6.63
2022-10-22T00:21:30.134Z,5.38
2022-10-22T00:24:02.463Z,5.75
2022-10-22T00:26:35.456Z,6.15
2022-10-22T00:29:07.756Z,6.72
2022-10-22T00:31:40.100Z,5.97
2022-10-22T00:34:12.425Z,6.25
2022-10-22T00:36:44.799Z,6.30
2022-10-22T00:39:20.514Z,5.43
2022-10-22T00:41:56.270Z,5.63
2022-10-22T00:45:20.655Z,5.18
2022-10-22T00:47:57.408Z,4.72
2022-10-22T00:50:32.686Z,5.60
2022-10-22T00:53:08.539Z,5.70
2022-10-22T00:55:43.647Z,5.55
2022-10-22T00:58:20.491Z,5.55
2022-10-22T01:00:53.373Z,4.38
2022-10-22T01:03:25.837Z,3.70
2022-10-22T01:06:00.619Z,4.45
2022-10-22T01:08:41.458Z,3.90
2022-10-22T01:11:21.811Z,4.47
2022-10-22T01:14:04.382Z,5.28
2022-10-22T01:16:46.083Z,4.78
2022-10-22T01:19:35.872Z,4.50
2022-10-22T01:22:17.518Z,4.15
2022-10-22T01:24:57.363Z,4.07
2022-10-22T01:30:07.627Z,4.65
2022-10-22T01:32:45.064Z,3.50
2022-10-22T01:35:22.426Z,4.57
2022-10-22T01:37:58.216Z,6.22
2022-10-22T01:40:32.226Z,6.03
2022-10-22T01:43:06.571Z,7.43
2022-10-22T01:45:44.230Z,4.70
2022-10-22T01:48:30.237Z,4.63
2022-10-22T01:51:20.358Z,4.50
2022-10-22T01:53:58.482Z,4.82
2022-10-22T01:56:47.694Z,4.22
2022-10-22T01:59:30.602Z,4.93
2022-10-22T02:02:10.379Z,4.95
2022-10-22T02:07:20.054Z,4.20
2022-10-22T02:09:54.473Z,4.93
2022-10-22T02:12:29.216Z,4.90
2022-10-22T02:15:03.466Z,4.53
2022-10-22T02:17:38.298Z,6.35
2022-10-22T02:20:16.107Z,5.53
2022-10-22T02:22:48.515Z,6.15
2022-10-22T02:25:22.292Z,4.45
2022-10-22T02:28:02.055Z,5.30
2022-10-22T02:33:13.962Z,5.13
2022-10-22T02:35:48.469Z,5.05
2022-10-22T02:38:23.364Z,5.68
2022-10-22T02:40:55.879Z,4.82
2022-10-22T02:43:28.838Z,4.82
2022-10-22T02:46:01.189Z,4.20
2022-10-22T02:48:34.194Z,4.95
2022-10-22T02:51:06.643Z,5.00
2022-10-22T02:53:39.027Z,4.95
2022-10-22T02:56:11.923Z,6.53
2022-10-22T02:58:44.224Z,5.13
2022-10-22T03:01:16.652Z,4.47
2022-10-22T03:03:49.729Z,5.38
2022-10-22T03:06:22.143Z,5.10
2022-10-22T03:08:54.475Z,5.28
2022-10-22T03:11:27.136Z,5.18
2022-10-22T03:13:59.475Z,6.97
2022-10-22T03:16:31.726Z,7.00
2022-10-22T03:19:04.748Z,6.93
2022-10-22T03:21:41.974Z,5.80
2022-10-22T03:24:17.593Z,5.93
2022-10-22T03:26:51.383Z,7.03
2022-10-22T03:29:25.975Z,7.45
2022-10-22T03:31:58.310Z,7.28
2022-10-22T03:34:31.783Z,8.90
2022-10-22T03:37:04.333Z,10.07
2022-10-22T03:39:37.426Z,9.35
2022-10-22T03:42:09.982Z,9.55
2022-10-22T03:44:42.316Z,10.77
2022-10-22T03:47:14.604Z,10.30
2022-10-22T03:49:47.563Z,9.52
2022-10-22T03:52:19.899Z,10.48
2022-10-22T03:54:52.251Z,8.65
2022-10-22T03:57:24.786Z,9.60
2022-10-22T03:59:57.080Z,9.52
2022-10-22T04:02:29.342Z,12.88
2022-10-22T04:05:02.419Z,10.55
2022-10-22T04:07:34.733Z,9.50
2022-10-22T04:10:07.816Z,10.07
2022-10-22T04:12:40.180Z,7.97
2022-10-22T04:15:12.415Z,7.57
2022-10-22T04:17:44.742Z,7.15
2022-10-22T04:20:17.946Z,6.93
2022-10-22T04:22:50.219Z,6.90
2022-10-22T04:25:22.470Z,8.05
2022-10-22T04:27:54.849Z,7.57
2022-10-22T04:30:27.491Z,5.43
2022-10-22T04:32:59.782Z,5.72
2022-10-22T04:35:32.714Z,7.65
2022-10-22T04:38:05.037Z,11.68
2022-10-22T04:40:37.389Z,9.07
2022-10-22T04:43:09.722Z,9.48
2022-10-22T04:45:41.996Z,9.32
2022-10-22T04:48:14.307Z,8.93
2022-10-22T04:50:47.230Z,8.57
2022-10-22T04:53:19.493Z,9.18
2022-10-22T04:55:51.758Z,9.13
2022-10-22T04:58:24.155Z,9.82
2022-10-22T05:00:56.431Z,9.35
2022-10-22T05:03:28.741Z,9.82
2022-10-22T05:06:01.864Z,9.00
2022-10-22T05:08:34.379Z,16.83
2022-10-22T05:11:13.966Z,14.45
2022-10-22T05:13:46.694Z,14.85
2022-10-22T05:16:18.998Z,13.82
2022-10-22T05:18:51.344Z,13.15
2022-10-22T05:21:24.356Z,12.60
2022-10-22T05:23:59.138Z,12.27
2022-10-22T05:26:31.499Z,12.52
2022-10-22T05:29:03.810Z,11.43
2022-10-22T05:31:36.451Z,11.85
2022-10-22T05:34:08.835Z,12.02
2022-10-22T05:36:42.173Z,19.05
2022-10-22T05:39:14.556Z,13.85
2022-10-22T05:41:46.963Z,14.50
2022-10-22T05:44:19.504Z,25.70
2022-10-22T05:46:51.834Z,23.08
2022-10-22T05:49:24.244Z,23.02
2022-10-22T05:51:57.214Z,19.50
2022-10-22T05:54:29.483Z,18.75
2022-10-22T05:57:01.782Z,12.20
2022-10-22T05:59:34.158Z,11.38
2022-10-22T06:02:08.644Z,14.55
2022-10-22T06:04:40.982Z,12.07
2022-10-22T06:07:15.665Z,15.60
2022-10-22T06:09:49.574Z,16.35
2022-10-22T06:12:21.876Z,9.75
2022-10-22T06:14:54.321Z,9.48
2022-10-22T06:17:26.635Z,8.98
2022-10-22T06:19:59.010Z,9.27
2022-10-22T06:22:32.035Z,9.25
2022-10-22T06:25:05.552Z,8.88
2022-10-22T06:27:37.827Z,10.55
2022-10-22T06:30:10.960Z,8.93
2022-10-22T06:32:43.367Z,9.02
2022-10-22T06:35:15.920Z,9.57
2022-10-22T06:37:48.963Z,9.23
2022-10-22T06:40:21.458Z,9.82
2022-10-22T06:42:53.751Z,9.23
2022-10-22T06:45:26.511Z,12.48
2022-10-22T06:47:58.811Z,10.85
2022-10-22T06:50:31.413Z,9.20
2022-10-22T06:53:04.403Z,8.88
2022-10-22T06:55:36.788Z,9.55
2022-10-22T06:58:09.097Z,10.05
2022-10-22T07:00:41.456Z,9.18
2022-10-22T07:03:14.521Z,9.02
2022-10-22T07:05:46.826Z,11.50
2022-10-22T07:08:19.811Z,9.77
2022-10-22T07:10:52.148Z,10.80
2022-10-22T07:13:24.487Z,9.93
2022-10-22T07:15:56.810Z,9.43
2022-10-22T07:18:30.025Z,8.50
2022-10-22T07:21:02.819Z,9.15
2022-10-22T07:23:36.218Z,8.52
2022-10-22T07:26:09.004Z,9.07
2022-10-22T07:28:41.427Z,8.63
2022-10-22T07:31:15.544Z,8.48
2022-10-22T07:33:47.890Z,8.10
2022-10-22T07:36:20.191Z,8.40
2022-10-22T07:38:56.693Z,7.43
2022-10-22T07:41:31.022Z,7.25
2022-10-22T07:44:03.591Z,7.65
2022-10-22T07:46:35.916Z,7.82
2022-10-22T07:49:08.250Z,7.00
2022-10-22T07:51:40.582Z,5.47
2022-10-22T07:54:13.534Z,6.03
2022-10-22T07:56:45.921Z,5.85
2022-10-22T07:59:18.249Z,6.72
2022-10-22T08:01:50.563Z,6.32
2022-10-22T08:04:22.855Z,6.95
2022-10-22T08:06:55.192Z,5.97
2022-10-22T08:09:28.245Z,6.25
2022-10-22T08:12:00.553Z,5.85
2022-10-22T08:14:32.899Z,6.13
2022-10-22T08:17:05.239Z,5.10
2022-10-22T08:19:37.581Z,5.43
2022-10-22T08:22:10.010Z,5.43
2022-10-22T08:24:43.009Z,5.93
2022-10-22T08:27:15.318Z,4.95
2022-10-22T08:29:47.635Z,5.18
2022-10-22T08:32:20.139Z,5.75
2022-10-22T08:34:52.469Z,6.43
2022-10-22T08:37:25.258Z,4.68
2022-10-22T08:39:58.287Z,4.82
2022-10-22T08:43:11.013Z,4.80
2022-10-22T08:45:58.673Z,4.93
2022-10-22T08:48:42.942Z,6.00
2022-10-22T08:51:18.692Z,5.82
2022-10-22T08:54:13.353Z,5.40
2022-10-22T08:56:59.780Z,5.88
2022-10-22T08:59:41.304Z,5.70
2022-10-22T09:02:28.241Z,5.43
2022-10-22T09:05:15.035Z,5.30
2022-10-22T09:07:49.522Z,5.07
2022-10-22T09:10:26.537Z,6.90
2022-10-22T09:12:59.590Z,6.70
2022-10-22T09:15:31.950Z,4.97
2022-10-22T09:18:19.206Z,5.75
2022-10-22T09:20:56.132Z,4.80
2022-10-22T09:23:37.614Z,5.40
2022-10-22T09:26:14.354Z,5.28
2022-10-22T09:28:51.379Z,5.28
2022-10-22T09:31:30.188Z,5.88
2022-10-22T09:34:06.816Z,5.03
2022-10-22T09:36:39.155Z,5.03
2022-10-22T09:39:26.612Z,5.43
2022-10-22T09:41:58.990Z,5.43
2022-10-22T09:44:34.941Z,4.97
2022-10-22T09:47:43.287Z,5.18
2022-10-22T09:50:29.478Z,5.13
2022-10-22T09:53:12.432Z,5.25
2022-10-22T09:55:49.399Z,5.05
2022-10-22T09:58:21.745Z,3.92
2022-10-22T10:00:57.580Z,4.97
2022-10-22T10:03:32.753Z,5.18
2022-10-22T10:06:06.614Z,4.28
2022-10-22T10:08:39.040Z,4.55
2022-10-22T10:11:17.861Z,4.70
2022-10-22T10:14:02.528Z,4.97
2022-10-22T10:16:46.468Z,5.07
2022-10-22T10:19:30.236Z,5.20
2022-10-22T10:22:12.223Z,5.35
2022-10-22T10:25:09.881Z,4.65
2022-10-22T10:27:47.507Z,4.88
2022-10-22T10:30:23.271Z,5.18
2022-10-22T10:33:10.856Z,4.40
2022-10-22T10:35:54.383Z,4.32
2022-10-22T10:38:42.696Z,4.40
2022-10-22T10:41:23.004Z,3.70
2022-10-22T10:44:26.455Z,4.82
2022-10-22T10:47:08.826Z,3.80
2022-10-22T10:49:43.214Z,4.65
2022-10-22T10:52:27.825Z,5.47
2022-10-22T10:55:13.151Z,4.18
2022-10-22T10:57:56.108Z,4.75
2022-10-22T11:00:34.527Z,4.53
2022-10-22T11:03:39.045Z,3.80
2022-10-22T11:06:15.791Z,4.70
2022-10-22T11:08:56.812Z,3.58
2022-10-22T11:11:34.608Z,4.15
2022-10-22T11:14:14.853Z,4.15
2022-10-22T11:16:55.139Z,4.13
2022-10-22T11:19:50.254Z,4.68
2022-10-22T11:22:29.436Z,4.07
2022-10-22T11:25:14.530Z,3.25
2022-10-22T11:27:51.591Z,3.08
2022-10-22T11:30:28.735Z,3.75
2022-10-22T11:33:05.449Z,3.63
2022-10-22T11:35:44.707Z,3.28
2022-10-22T11:40:58.860Z,3.08
2022-10-22T11:43:34.550Z,3.28
2022-10-22T11:46:26.975Z,3.55
2022-10-22T11:49:05.914Z,3.25
2022-10-22T11:51:41.115Z,3.40
2022-10-22T11:54:41.631Z,3.97
2022-10-22T11:57:21.037Z,3.35
2022-10-22T11:59:57.517Z,2.97
2022-10-22T12:02:39.514Z,3.03
2022-10-22T12:05:43.004Z,3.35
2022-10-22T12:08:22.683Z,3.35
2022-10-22T12:11:04.823Z,3.30
2022-10-22T12:13:57.894Z,3.10
2022-10-22T12:16:55.308Z,3.80
2022-10-22T12:19:31.445Z,3.70
2022-10-22T12:22:14.795Z,3.35
2022-10-22T12:24:49.101Z,3.40
2022-10-22T12:27:24.300Z,3.55
2022-10-22T12:29:58.386Z,3.17
2022-10-22T12:32:34.471Z,4.35
2022-10-22T12:35:09.170Z,3.88
2022-10-22T12:37:41.842Z,3.45
2022-10-22T12:40:20.017Z,3.67
2022-10-22T12:42:54.808Z,4.05
2022-10-22T12:45:29.251Z,3.50
2022-10-22T12:48:05.118Z,3.83
2022-10-22T12:50:42.122Z,3.88
2022-10-22T12:53:17.091Z,4.15
2022-10-22T12:55:51.799Z,3.80
2022-10-22T12:58:29.273Z,3.55
2022-10-22T13:01:01.652Z,3.97
2022-10-22T13:03:37.803Z,3.97
2022-10-22T13:06:23.116Z,4.35
2022-10-22T13:09:02.180Z,3.78
2022-10-22T13:11:39.197Z,3.58
2022-10-22T13:14:20.607Z,3.53
2022-10-22T13:17:11.477Z,3.53
2022-10-22T13:19:48.002Z,3.55
2022-10-22T13:22:34.456Z,4.45
2022-10-22T13:25:22.212Z,3.13
2022-10-22T13:27:57.082Z,3.13
2022-10-22T13:30:32.357Z,4.13
2022-10-22T13:33:06.740Z,5.22
2022-10-22T13:35:39.182Z,3.85
2022-10-22T13:38:15.256Z,3.80
2022-10-22T13:40:47.902Z,5.85
2022-10-22T13:43:20.703Z,3.92
2022-10-22T13:45:58.118Z,4.00
2022-10-22T13:48:30.591Z,5.18
2022-10-22T13:51:04.683Z,3.88
2022-10-22T13:53:37.006Z,3.17
2022-10-22T13:56:13.060Z,3.88
2022-10-22T13:58:47.136Z,3.50
2022-10-22T14:01:23.459Z,4.32
2022-10-22T14:03:58.594Z,3.85
2022-10-22T14:06:32.166Z,4.40
2022-10-22T14:09:08.112Z,3.45
2022-10-22T14:11:40.761Z,3.72
2022-10-22T14:14:16.411Z,3.63
2022-10-22T14:16:49.448Z,3.97
2022-10-22T14:19:21.823Z,3.67
2022-10-22T14:21:54.124Z,4.55
2022-10-22T14:24:26.438Z,4.50
2022-10-22T14:26:58.765Z,3.58
2022-10-22T14:29:31.094Z,3.10
2022-10-22T14:32:06.171Z,3.85
2022-10-22T14:34:38.528Z,4.03
2022-10-22T14:37:16.620Z,4.03
2022-10-22T14:39:53.532Z,4.28
2022-10-22T14:42:26.373Z,3.60
2022-10-22T14:44:58.691Z,4.45
2022-10-22T14:47:31.655Z,3.60
2022-10-22T14:50:04.686Z,3.92
2022-10-22T14:52:37.631Z,4.10
2022-10-22T14:55:10.912Z,5.38
2022-10-22T14:57:43.735Z,4.78
2022-10-22T15:00:17.903Z,5.78
2022-10-22T15:02:50.887Z,5.60
2022-10-22T15:05:23.177Z,4.53
2022-10-22T15:07:55.558Z,5.32
2022-10-22T15:10:27.979Z,4.65
2022-10-22T15:13:00.293Z,6.63
2022-10-22T15:15:36.641Z,5.03
2022-10-22T15:18:40.495Z,6.88
2022-10-22T15:21:15.383Z,7.75
2022-10-22T15:23:47.942Z,6.80
2022-10-22T15:26:20.270Z,5.47
2022-10-22T15:28:52.535Z,5.70
2022-10-22T15:31:43.868Z,4.00
2022-10-22T15:34:22.506Z,4.35
2022-10-22T15:36:56.116Z,4.27
2022-10-22T15:39:29.150Z,3.85
2022-10-22T15:42:01.542Z,8.02
2022-10-22T15:44:34.087Z,5.90
2022-10-22T15:47:06.801Z,6.35
2022-10-22T15:49:41.122Z,6.43
2022-10-22T15:52:13.442Z,4.47
2022-10-22T15:54:45.710Z,5.20
2022-10-22T15:57:18.042Z,4.70
2022-10-22T15:59:51.257Z,4.32
2022-10-22T16:02:23.579Z,4.18
2022-10-22T16:04:58.051Z,4.55
2022-10-22T16:07:30.670Z,9.18
2022-10-22T16:10:03.732Z,6.78
2022-10-22T16:12:36.434Z,24.88
2022-10-22T16:15:10.626Z,18.35
2022-10-22T16:17:42.974Z,16.77
2022-10-22T16:20:16.201Z,12.10
2022-10-22T16:22:50.044Z,10.05
2022-10-22T16:25:22.431Z,6.55
2022-10-22T16:27:54.805Z,9.05
2022-10-22T16:30:27.234Z,12.02
2022-10-22T16:33:00.880Z,16.67
2022-10-22T16:35:40.131Z,12.60
2022-10-22T16:38:12.534Z,16.55
2022-10-22T16:40:45.559Z,16.83
2022-10-22T16:43:18.099Z,13.13
2022-10-22T16:45:50.538Z,14.20
2022-10-22T16:48:22.903Z,18.42
2022-10-22T16:50:55.941Z,20.92
2022-10-22T16:53:28.361Z,20.70
2022-10-22T16:56:00.782Z,22.15
2022-10-22T16:58:33.186Z,15.68
2022-10-22T17:01:07.010Z,13.70
2022-10-22T17:03:39.936Z,12.52
2022-10-22T17:06:13.861Z,12.65
2022-10-22T17:08:47.137Z,11.20
2022-10-22T17:11:21.702Z,10.73
2022-10-22T17:13:54.478Z,10.68
2022-10-22T17:16:27.322Z,11.60
2022-10-22T17:19:02.402Z,16.20
2022-10-22T17:21:35.374Z,13.38
2022-10-22T17:24:07.926Z,9.80
2022-10-22T17:26:40.394Z,8.93
2022-10-22T17:29:13.475Z,13.73
2022-10-22T17:31:45.846Z,11.45
2022-10-22T17:34:18.226Z,12.40
2022-10-22T17:36:51.250Z,11.82
2022-10-22T17:39:23.574Z,19.75
2022-10-22T17:41:55.923Z,16.70
2022-10-22T17:44:28.361Z,17.52
2022-10-22T17:47:01.064Z,21.42
2022-10-22T17:49:33.391Z,26.90
2022-10-22T17:52:06.702Z,24.58
2022-10-22T17:54:39.111Z,17.20
2022-10-22T17:57:12.993Z,12.45
2022-10-22T17:59:45.311Z,20.20
2022-10-22T18:02:18.060Z,17.52
2022-10-22T18:04:51.520Z,10.32
2022-10-22T18:07:24.534Z,6.88
2022-10-22T18:09:56.884Z,18.15
2022-10-22T18:12:29.262Z,16.40
2022-10-22T18:15:01.619Z,8.75
2022-10-22T18:17:35.921Z,7.18
2022-10-22T18:20:12.503Z,9.27
2022-10-22T18:22:45.523Z,7.78
2022-10-22T18:25:18.505Z,7.03
2022-10-22T18:27:50.894Z,5.40
2022-10-22T18:30:23.233Z,5.93
2022-10-22T18:32:55.547Z,5.50
2022-10-22T18:35:31.652Z,19.02
2022-10-22T18:38:04.637Z,4.30
2022-10-22T18:40:43.790Z,4.13
2022-10-22T18:43:16.974Z,3.85
2022-10-22T18:45:49.378Z,4.05
2022-10-22T18:48:22.295Z,4.15
2022-10-22T18:51:01.942Z,4.03
2022-10-22T18:53:36.127Z,4.15
2022-10-22T18:56:10.210Z,7.13
2022-10-22T18:58:45.498Z,6.55
2022-10-22T19:01:20.486Z,6.60
2022-10-22T19:03:52.954Z,5.38
2022-10-22T19:06:34.320Z,5.18
2022-10-22T19:09:09.022Z,5.40
2022-10-22T19:11:42.588Z,9.20
2022-10-22T19:14:18.525Z,7.10
2022-10-22T19:16:50.894Z,4.57
2022-10-22T19:19:23.744Z,4.22
2022-10-22T19:21:58.721Z,3.97
2022-10-22T19:24:31.885Z,6.55
2022-10-22T19:27:04.365Z,4.88
2022-10-22T19:29:36.736Z,4.93
2022-10-22T19:32:09.187Z,5.90
2022-10-22T19:34:41.570Z,9.02
2022-10-22T19:37:14.483Z,5.07
2022-10-22T19:39:49.586Z,5.32
2022-10-22T19:42:21.972Z,4.95
2022-10-22T19:44:54.423Z,5.22
2022-10-22T19:47:27.390Z,9.90
2022-10-22T19:49:59.732Z,7.03
2022-10-22T19:52:33.290Z,5.25
2022-10-22T19:55:06.701Z,6.18
2022-10-22T19:57:39.320Z,5.65
2022-10-22T20:00:12.574Z,6.85
2022-10-22T20:02:44.868Z,5.22
2022-10-22T20:05:17.397Z,5.20
2022-10-22T20:07:49.701Z,7.85
2022-10-22T20:10:23.477Z,15.25
2022-10-22T20:12:55.883Z,14.05
2022-10-22T20:15:28.204Z,12.18
2022-10-22T20:18:00.741Z,6.70
2022-10-22T20:20:33.101Z,8.75
2022-10-22T20:23:07.884Z,10.65
2022-10-22T20:25:42.849Z,8.88
2022-10-22T20:28:15.921Z,7.35
2022-10-22T20:30:48.290Z,6.93
2022-10-22T20:33:20.688Z,6.43
2022-10-22T20:35:59.672Z,4.25
2022-10-22T20:38:32.165Z,4.22
2022-10-22T20:41:07.486Z,5.38
2022-10-22T20:43:39.872Z,4.43
2022-10-22T20:46:17.339Z,4.82
2022-10-22T20:48:51.427Z,5.10
2022-10-22T20:51:23.864Z,4.97
2022-10-22T20:53:56.237Z,5.30
2022-10-22T20:56:29.489Z,4.40
2022-10-22T20:59:05.094Z,5.05
2022-10-22T21:01:39.443Z,4.60
2022-10-22T21:04:12.280Z,5.25
2022-10-22T21:06:44.611Z,5.78
2022-10-22T21:09:17.022Z,4.82
2022-10-22T21:14:34.110Z,5.20
2022-10-22T21:17:07.482Z,4.95
2022-10-22T21:19:39.795Z,4.93
2022-10-22T21:22:12.115Z,4.38
2022-10-22T21:24:44.502Z,5.18
2022-10-22T21:27:17.503Z,5.40
2022-10-22T21:29:49.896Z,4.70
2022-10-22T21:32:22.406Z,5.50
2022-10-22T21:34:54.879Z,8.77
2022-10-22T21:37:29.251Z,7.88
2022-10-22T21:40:03.067Z,7.43
2022-10-22T21:42:36.092Z,6.65
2022-10-22T21:45:12.420Z,4.93
2022-10-22T21:47:47.190Z,4.82
2022-10-22T21:50:19.683Z,6.00
2022-10-22T21:52:52.062Z,5.30
2022-10-22T21:55:24.428Z,5.10
2022-10-22T21:57:57.451Z,5.35
2022-10-22T22:00:29.820Z,6.22
2022-10-22T22:03:02.228Z,5.47
2022-10-22T22:05:34.553Z,5.85
2022-10-22T22:08:06.884Z,3.65
2022-10-22T22:10:39.371Z,5.55
2022-10-22T22:13:12.352Z,4.93
2022-10-22T22:15:44.743Z,4.65
2022-10-22T22:18:17.115Z,4.88
2022-10-22T22:20:49.486Z,4.30
2022-10-22T22:23:21.858Z,4.03
2022-10-22T22:25:58.541Z,4.45
2022-10-22T22:28:32.719Z,5.13
2022-10-22T22:31:14.730Z,4.28
2022-10-22T22:33:47.709Z,3.70
2022-10-22T22:36:20.065Z,4.85
2022-10-22T22:38:54.117Z,5.05
2022-10-22T22:41:26.531Z,4.20
2022-10-22T22:43:59.641Z,4.70
2022-10-22T22:46:31.964Z,4.70
2022-10-22T22:49:04.787Z,3.88
2022-10-22T22:51:37.167Z,3.83
2022-10-22T22:54:10.054Z,4.07
2022-10-22T22:56:42.427Z,5.28
2022-10-22T22:59:15.474Z,5.65
2022-10-22T23:01:49.266Z,5.57
2022-10-22T23:04:23.070Z,4.60
2022-10-22T23:06:55.445Z,5.32
2022-10-22T23:09:27.758Z,5.95
2022-10-22T23:12:00.153Z,4.43
2022-10-22T23:14:33.170Z,4.82
2022-10-22T23:17:05.627Z,4.65
2022-10-22T23:19:37.970Z,4.30
2022-10-22T23:22:10.419Z,4.82
2022-10-22T23:24:42.719Z,4.60
2022-10-22T23:27:15.114Z,4.72
2022-10-22T23:29:48.115Z,5.05
2022-10-22T23:32:20.422Z,4.70
2022-10-22T23:34:52.858Z,4.38
2022-10-22T23:37:25.278Z,3.85
2022-10-22T23:39:57.606Z,4.80
2022-10-22T23:42:30.001Z,6.05
2022-10-22T23:45:03.303Z,6.78
2022-10-22T23:47:35.918Z,4.65
2022-10-22T23:50:08.264Z,4.68
2022-10-22T23:52:40.911Z,4.57
2022-10-22T23:55:13.447Z,4.75
2022-10-22T23:57:45.846Z,9.63
